sensor_id;sensor_type;location;lat;lon;timestamp;temperature;humidity
71039;SHT30;58692;43.212;27.908;2022-10-15T00:01:31;14.41;66.42
71039;SHT30;58692;43.212;27.908;2022-10-15T00:03:58;14.48;66.18
71039;SHT30;58692;43.212;27.908;2022-10-15T00:06:24;14.47;66.25
71039;SHT30;58692;43.212;27.908;2022-10-15T00:08:49;14.56;65.89
71039;SHT30;58692;43.212;27.908;2022-10-15T00:11:17;14.52;66.16
71039;SHT30;58692;43.212;27.908;2022-10-15T00:13:44;14.61;66.02
71039;SHT30;58692;43.212;27.908;2022-10-15T00:16:13;14.51;66.04
71039;SHT30;58692;43.212;27.908;2022-10-15T00:18:40;14.50;65.96
71039;SHT30;58692;43.212;27.908;2022-10-15T00:21:10;14.45;65.89
71039;SHT30;58692;43.212;27.908;2022-10-15T00:23:36;14.47;65.90
71039;SHT30;58692;43.212;27.908;2022-10-15T00:26:05;14.38;65.93
71039;SHT30;58692;43.212;27.908;2022-10-15T00:28:31;14.33;65.93
71039;SHT30;58692;43.212;27.908;2022-10-15T00:31:13;14.31;65.93
71039;SHT30;58692;43.212;27.908;2022-10-15T00:33:39;14.26;65.93
71039;SHT30;58692;43.212;27.908;2022-10-15T00:36:11;14.27;65.85
71039;SHT30;58692;43.212;27.908;2022-10-15T00:38:37;14.26;65.89
71039;SHT30;58692;43.212;27.908;2022-10-15T00:41:05;14.26;65.89
71039;SHT30;58692;43.212;27.908;2022-10-15T00:43:41;14.24;65.79
71039;SHT30;58692;43.212;27.908;2022-10-15T00:46:17;14.17;65.99
71039;SHT30;58692;43.212;27.908;2022-10-15T00:48:45;14.06;66.25
71039;SHT30;58692;43.212;27.908;2022-10-15T00:51:13;13.89;66.79
71039;SHT30;58692;43.212;27.908;2022-10-15T00:53:39;13.80;67.04
71039;SHT30;58692;43.212;27.908;2022-10-15T00:56:05;13.86;66.88
71039;SHT30;58692;43.212;27.908;2022-10-15T00:58:31;13.86;66.91
71039;SHT30;58692;43.212;27.908;2022-10-15T01:00:58;13.89;66.77
71039;SHT30;58692;43.212;27.908;2022-10-15T01:03:24;13.90;66.72
71039;SHT30;58692;43.212;27.908;2022-10-15T01:05:50;13.91;66.86
71039;SHT30;58692;43.212;27.908;2022-10-15T01:08:17;13.79;67.17
71039;SHT30;58692;43.212;27.908;2022-10-15T01:10:52;13.86;66.93
71039;SHT30;58692;43.212;27.908;2022-10-15T01:16:18;13.96;66.80
71039;SHT30;58692;43.212;27.908;2022-10-15T01:21:25;13.89;67.03
71039;SHT30;58692;43.212;27.908;2022-10-15T01:32:25;13.75;67.53
71039;SHT30;58692;43.212;27.908;2022-10-15T01:40:18;13.61;67.73
71039;SHT30;58692;43.212;27.908;2022-10-15T01:42:53;13.55;68.01
71039;SHT30;58692;43.212;27.908;2022-10-15T01:45:26;13.46;68.08
71039;SHT30;58692;43.212;27.908;2022-10-15T01:47:55;13.42;68.14
71039;SHT30;58692;43.212;27.908;2022-10-15T01:50:25;13.29;68.61
71039;SHT30;58692;43.212;27.908;2022-10-15T01:52:52;13.19;68.91
71039;SHT30;58692;43.212;27.908;2022-10-15T01:55:21;13.02;69.65
71039;SHT30;58692;43.212;27.908;2022-10-15T01:57:48;12.90;70.18
71039;SHT30;58692;43.212;27.908;2022-10-15T02:00:14;12.84;70.53
71039;SHT30;58692;43.212;27.908;2022-10-15T02:02:41;12.76;71.02
71039;SHT30;58692;43.212;27.908;2022-10-15T02:05:14;12.76;71.13
71039;SHT30;58692;43.212;27.908;2022-10-15T02:10:36;12.64;72.14
71039;SHT30;58692;43.212;27.908;2022-10-15T02:15:59;12.65;72.53
71039;SHT30;58692;43.212;27.908;2022-10-15T02:18:35;12.70;72.87
71039;SHT30;58692;43.212;27.908;2022-10-15T02:21:13;12.80;72.82
71039;SHT30;58692;43.212;27.908;2022-10-15T02:23:51;12.87;72.70
71039;SHT30;58692;43.212;27.908;2022-10-15T02:26:18;12.85;72.83
71039;SHT30;58692;43.212;27.908;2022-10-15T02:28:49;12.77;73.26
71039;SHT30;58692;43.212;27.908;2022-10-15T02:31:17;12.70;73.36
71039;SHT30;58692;43.212;27.908;2022-10-15T02:33:45;12.74;73.14
71039;SHT30;58692;43.212;27.908;2022-10-15T02:36:11;12.71;73.00
71039;SHT30;58692;43.212;27.908;2022-10-15T02:38:39;12.76;72.83
71039;SHT30;58692;43.212;27.908;2022-10-15T02:41:07;12.74;72.38
71039;SHT30;58692;43.212;27.908;2022-10-15T02:43:34;12.59;72.36
71039;SHT30;58692;43.212;27.908;2022-10-15T02:46:00;12.56;72.45
71039;SHT30;58692;43.212;27.908;2022-10-15T02:48:25;12.59;72.30
71039;SHT30;58692;43.212;27.908;2022-10-15T02:50:51;12.71;71.98
71039;SHT30;58692;43.212;27.908;2022-10-15T02:53:16;12.61;72.25
71039;SHT30;58692;43.212;27.908;2022-10-15T02:55:42;12.61;72.09
71039;SHT30;58692;43.212;27.908;2022-10-15T02:58:07;12.64;72.09
71039;SHT30;58692;43.212;27.908;2022-10-15T03:00:33;12.61;71.98
71039;SHT30;58692;43.212;27.908;2022-10-15T03:02:59;12.51;72.36
71039;SHT30;58692;43.212;27.908;2022-10-15T03:05:24;12.50;72.46
71039;SHT30;58692;43.212;27.908;2022-10-15T03:07:49;12.46;72.64
71039;SHT30;58692;43.212;27.908;2022-10-15T03:10:15;12.53;72.62
71039;SHT30;58692;43.212;27.908;2022-10-15T03:12:40;12.53;72.85
71039;SHT30;58692;43.212;27.908;2022-10-15T03:15:06;12.67;72.56
71039;SHT30;58692;43.212;27.908;2022-10-15T03:17:32;12.61;72.59
71039;SHT30;58692;43.212;27.908;2022-10-15T03:19:58;12.65;72.70
71039;SHT30;58692;43.212;27.908;2022-10-15T03:22:23;12.64;73.04
71039;SHT30;58692;43.212;27.908;2022-10-15T03:24:48;12.65;73.20
71039;SHT30;58692;43.212;27.908;2022-10-15T03:27:14;12.68;73.06
71039;SHT30;58692;43.212;27.908;2022-10-15T03:29:39;12.67;73.65
71039;SHT30;58692;43.212;27.908;2022-10-15T03:32:05;12.64;73.74
71039;SHT30;58692;43.212;27.908;2022-10-15T03:34:30;12.70;73.95
71039;SHT30;58692;43.212;27.908;2022-10-15T03:36:56;12.68;74.27
71039;SHT30;58692;43.212;27.908;2022-10-15T03:39:22;12.71;74.39
71039;SHT30;58692;43.212;27.908;2022-10-15T03:41:47;12.70;74.63
71039;SHT30;58692;43.212;27.908;2022-10-15T03:44:13;12.73;74.50
71039;SHT30;58692;43.212;27.908;2022-10-15T03:46:38;12.70;74.73
71039;SHT30;58692;43.212;27.908;2022-10-15T03:49:04;12.74;74.91
71039;SHT30;58692;43.212;27.908;2022-10-15T03:51:29;12.71;75.21
71039;SHT30;58692;43.212;27.908;2022-10-15T03:53:55;12.70;75.51
71039;SHT30;58692;43.212;27.908;2022-10-15T03:56:20;12.71;75.53
71039;SHT30;58692;43.212;27.908;2022-10-15T03:58:46;12.79;75.63
71039;SHT30;58692;43.212;27.908;2022-10-15T04:01:15;12.80;75.96
71039;SHT30;58692;43.212;27.908;2022-10-15T04:03:41;12.76;78.27
71039;SHT30;58692;43.212;27.908;2022-10-15T04:06:08;12.71;80.16
71039;SHT30;58692;43.212;27.908;2022-10-15T04:08:34;12.74;81.44
71039;SHT30;58692;43.212;27.908;2022-10-15T04:10:59;12.71;82.04
71039;SHT30;58692;43.212;27.908;2022-10-15T04:13:26;12.80;82.77
71039;SHT30;58692;43.212;27.908;2022-10-15T04:15:51;12.90;82.57
71039;SHT30;58692;43.212;27.908;2022-10-15T04:18:17;12.87;82.78
71039;SHT30;58692;43.212;27.908;2022-10-15T04:20:46;12.87;82.88
71039;SHT30;58692;43.212;27.908;2022-10-15T04:23:12;12.83;81.30
71039;SHT30;58692;43.212;27.908;2022-10-15T04:25:37;12.77;81.35
71039;SHT30;58692;43.212;27.908;2022-10-15T04:28:03;12.73;81.53
71039;SHT30;58692;43.212;27.908;2022-10-15T04:30:29;12.74;81.12
71039;SHT30;58692;43.212;27.908;2022-10-15T04:32:54;12.71;80.33
71039;SHT30;58692;43.212;27.908;2022-10-15T04:35:20;12.70;80.36
71039;SHT30;58692;43.212;27.908;2022-10-15T04:37:46;12.70;80.97
71039;SHT30;58692;43.212;27.908;2022-10-15T04:40:12;12.74;80.60
71039;SHT30;58692;43.212;27.908;2022-10-15T04:42:38;12.77;79.90
71039;SHT30;58692;43.212;27.908;2022-10-15T04:45:04;12.94;79.65
71039;SHT30;58692;43.212;27.908;2022-10-15T04:47:30;12.98;79.70
71039;SHT30;58692;43.212;27.908;2022-10-15T04:49:55;13.07;79.90
71039;SHT30;58692;43.212;27.908;2022-10-15T04:52:21;13.14;79.31
71039;SHT30;58692;43.212;27.908;2022-10-15T04:54:47;13.19;79.01
71039;SHT30;58692;43.212;27.908;2022-10-15T04:57:12;13.32;78.81
71039;SHT30;58692;43.212;27.908;2022-10-15T04:59:37;13.35;78.63
71039;SHT30;58692;43.212;27.908;2022-10-15T05:02:03;13.49;78.90
71039;SHT30;58692;43.212;27.908;2022-10-15T05:04:29;13.49;77.37
71039;SHT30;58692;43.212;27.908;2022-10-15T05:06:54;13.62;77.58
71039;SHT30;58692;43.212;27.908;2022-10-15T05:09:19;13.69;77.82
71039;SHT30;58692;43.212;27.908;2022-10-15T05:11:45;13.61;77.69
71039;SHT30;58692;43.212;27.908;2022-10-15T05:14:10;13.65;76.93
71039;SHT30;58692;43.212;27.908;2022-10-15T05:16:37;13.69;76.81
71039;SHT30;58692;43.212;27.908;2022-10-15T05:19:04;13.80;76.79
71039;SHT30;58692;43.212;27.908;2022-10-15T05:21:31;13.89;76.41
71039;SHT30;58692;43.212;27.908;2022-10-15T05:23:58;13.96;75.66
71039;SHT30;58692;43.212;27.908;2022-10-15T05:26:26;14.00;76.03
71039;SHT30;58692;43.212;27.908;2022-10-15T05:28:52;14.03;75.97
71039;SHT30;58692;43.212;27.908;2022-10-15T05:31:19;14.17;75.53
71039;SHT30;58692;43.212;27.908;2022-10-15T05:33:47;14.16;75.96
71039;SHT30;58692;43.212;27.908;2022-10-15T05:36:14;14.27;74.85
71039;SHT30;58692;43.212;27.908;2022-10-15T05:38:44;14.28;75.16
71039;SHT30;58692;43.212;27.908;2022-10-15T05:41:10;14.28;75.06
71039;SHT30;58692;43.212;27.908;2022-10-15T05:43:35;14.34;74.78
71039;SHT30;58692;43.212;27.908;2022-10-15T05:46:01;14.41;74.98
71039;SHT30;58692;43.212;27.908;2022-10-15T05:48:27;14.48;74.56
71039;SHT30;58692;43.212;27.908;2022-10-15T05:50:52;14.50;74.68
71039;SHT30;58692;43.212;27.908;2022-10-15T05:53:18;14.64;74.00
71039;SHT30;58692;43.212;27.908;2022-10-15T05:55:44;14.70;73.57
71039;SHT30;58692;43.212;27.908;2022-10-15T05:58:09;14.74;73.43
71039;SHT30;58692;43.212;27.908;2022-10-15T06:00:35;14.74;73.81
71039;SHT30;58692;43.212;27.908;2022-10-15T06:03:00;14.81;73.91
71039;SHT30;58692;43.212;27.908;2022-10-15T06:05:26;14.79;73.65
71039;SHT30;58692;43.212;27.908;2022-10-15T06:07:52;14.78;73.06
71039;SHT30;58692;43.212;27.908;2022-10-15T06:10:17;14.72;73.67
71039;SHT30;58692;43.212;27.908;2022-10-15T06:12:48;14.78;72.93
71039;SHT30;58692;43.212;27.908;2022-10-15T06:15:13;14.71;73.06
71039;SHT30;58692;43.212;27.908;2022-10-15T06:17:39;14.77;73.22
71039;SHT30;58692;43.212;27.908;2022-10-15T06:20:05;14.79;72.62
71039;SHT30;58692;43.212;27.908;2022-10-15T06:22:30;14.78;72.66
71039;SHT30;58692;43.212;27.908;2022-10-15T06:24:56;14.79;72.31
71039;SHT30;58692;43.212;27.908;2022-10-15T06:27:21;14.85;72.43
71039;SHT30;58692;43.212;27.908;2022-10-15T06:29:47;14.91;72.18
71039;SHT30;58692;43.212;27.908;2022-10-15T06:32:12;14.98;71.97
71039;SHT30;58692;43.212;27.908;2022-10-15T06:34:38;15.06;71.39
71039;SHT30;58692;43.212;27.908;2022-10-15T06:37:03;14.98;71.52
71039;SHT30;58692;43.212;27.908;2022-10-15T06:39:29;15.03;71.54
71039;SHT30;58692;43.212;27.908;2022-10-15T06:41:54;15.08;70.96
71039;SHT30;58692;43.212;27.908;2022-10-15T06:44:20;15.08;70.97
71039;SHT30;58692;43.212;27.908;2022-10-15T06:46:45;15.11;71.01
71039;SHT30;58692;43.212;27.908;2022-10-15T06:49:11;15.19;70.36
71039;SHT30;58692;43.212;27.908;2022-10-15T06:51:36;15.22;70.94
71039;SHT30;58692;43.212;27.908;2022-10-15T06:54:03;15.35;69.92
71039;SHT30;58692;43.212;27.908;2022-10-15T06:56:28;15.42;69.72
71039;SHT30;58692;43.212;27.908;2022-10-15T06:58:54;15.47;69.57
71039;SHT30;58692;43.212;27.908;2022-10-15T07:01:19;15.57;68.56
71039;SHT30;58692;43.212;27.908;2022-10-15T07:03:48;15.66;68.50
71039;SHT30;58692;43.212;27.908;2022-10-15T07:06:14;15.71;68.13
71039;SHT30;58692;43.212;27.908;2022-10-15T07:08:40;15.82;68.30
71039;SHT30;58692;43.212;27.908;2022-10-15T07:11:07;15.93;67.24
71039;SHT30;58692;43.212;27.908;2022-10-15T07:13:33;16.07;66.81
71039;SHT30;58692;43.212;27.908;2022-10-15T07:16:05;16.10;66.23
71039;SHT30;58692;43.212;27.908;2022-10-15T07:18:31;16.17;65.93
71039;SHT30;58692;43.212;27.908;2022-10-15T07:20:57;16.24;65.51
71039;SHT30;58692;43.212;27.908;2022-10-15T07:23:22;16.31;65.22
71039;SHT30;58692;43.212;27.908;2022-10-15T07:25:48;16.44;64.29
71039;SHT30;58692;43.212;27.908;2022-10-15T07:28:18;16.49;63.88
71039;SHT30;58692;43.212;27.908;2022-10-15T07:31:06;16.64;63.33
71039;SHT30;58692;43.212;27.908;2022-10-15T07:33:32;16.98;62.97
71039;SHT30;58692;43.212;27.908;2022-10-15T07:36:02;17.00;62.42
71039;SHT30;58692;43.212;27.908;2022-10-15T07:38:29;17.27;61.57
71039;SHT30;58692;43.212;27.908;2022-10-15T07:40:59;17.54;60.42
71039;SHT30;58692;43.212;27.908;2022-10-15T07:43:24;17.70;59.56
71039;SHT30;58692;43.212;27.908;2022-10-15T07:45:50;17.84;58.19
71039;SHT30;58692;43.212;27.908;2022-10-15T07:48:17;17.90;57.59
71039;SHT30;58692;43.212;27.908;2022-10-15T07:50:42;17.94;57.18
71039;SHT30;58692;43.212;27.908;2022-10-15T07:53:08;18.32;57.05
71039;SHT30;58692;43.212;27.908;2022-10-15T07:55:34;18.26;56.68
71039;SHT30;58692;43.212;27.908;2022-10-15T07:57:59;17.97;57.73
71039;SHT30;58692;43.212;27.908;2022-10-15T08:00:25;18.13;57.40
71039;SHT30;58692;43.212;27.908;2022-10-15T08:02:51;18.38;56.86
71039;SHT30;58692;43.212;27.908;2022-10-15T08:05:16;18.32;56.55
71039;SHT30;58692;43.212;27.908;2022-10-15T08:07:42;18.41;56.32
71039;SHT30;58692;43.212;27.908;2022-10-15T08:10:08;18.56;55.43
71039;SHT30;58692;43.212;27.908;2022-10-15T08:12:34;18.19;56.10
71039;SHT30;58692;43.212;27.908;2022-10-15T08:15:00;18.22;56.14
71039;SHT30;58692;43.212;27.908;2022-10-15T08:17:26;18.22;55.23
71039;SHT30;58692;43.212;27.908;2022-10-15T08:19:51;18.53;53.76
71039;SHT30;58692;43.212;27.908;2022-10-15T08:22:17;18.69;52.93
71039;SHT30;58692;43.212;27.908;2022-10-15T08:24:42;18.87;52.35
71039;SHT30;58692;43.212;27.908;2022-10-15T08:27:08;19.07;51.47
71039;SHT30;58692;43.212;27.908;2022-10-15T08:29:33;19.07;50.73
71039;SHT30;58692;43.212;27.908;2022-10-15T08:31:59;19.16;50.15
71039;SHT30;58692;43.212;27.908;2022-10-15T08:34:24;19.55;49.64
71039;SHT30;58692;43.212;27.908;2022-10-15T08:36:50;19.11;48.56
71039;SHT30;58692;43.212;27.908;2022-10-15T08:39:15;19.31;48.09
71039;SHT30;58692;43.212;27.908;2022-10-15T08:41:44;19.20;47.97
71039;SHT30;58692;43.212;27.908;2022-10-15T08:44:26;19.26;48.35
71039;SHT30;58692;43.212;27.908;2022-10-15T08:49:46;20.22;46.74
71039;SHT30;58692;43.212;27.908;2022-10-15T08:54:45;20.85;46.04
71039;SHT30;58692;43.212;27.908;2022-10-15T08:57:21;21.44;44.71
71039;SHT30;58692;43.212;27.908;2022-10-15T09:00:00;21.42;44.61
71039;SHT30;58692;43.212;27.908;2022-10-15T09:02:33;21.17;44.72
71039;SHT30;58692;43.212;27.908;2022-10-15T09:05:21;21.32;45.18
71039;SHT30;58692;43.212;27.908;2022-10-15T09:07:55;21.17;45.94
71039;SHT30;58692;43.212;27.908;2022-10-15T09:13:13;21.08;47.27
71039;SHT30;58692;43.212;27.908;2022-10-15T09:15:50;20.77;48.30
71039;SHT30;58692;43.212;27.908;2022-10-15T09:18:20;21.20;48.11
71039;SHT30;58692;43.212;27.908;2022-10-15T09:20:47;21.51;48.52
71039;SHT30;58692;43.212;27.908;2022-10-15T09:23:18;21.31;51.55
71039;SHT30;58692;43.212;27.908;2022-10-15T09:25:48;20.63;53.90
71039;SHT30;58692;43.212;27.908;2022-10-15T09:28:17;20.28;54.51
71039;SHT30;58692;43.212;27.908;2022-10-15T09:30:48;19.68;55.86
71039;SHT30;58692;43.212;27.908;2022-10-15T09:33:44;19.13;57.97
71039;SHT30;58692;43.212;27.908;2022-10-15T09:36:17;19.37;57.64
71039;SHT30;58692;43.212;27.908;2022-10-15T09:39:12;19.27;56.52
71039;SHT30;58692;43.212;27.908;2022-10-15T09:41:59;19.18;57.52
71039;SHT30;58692;43.212;27.908;2022-10-15T09:44:33;19.02;58.33
71039;SHT30;58692;43.212;27.908;2022-10-15T09:47:00;18.86;59.19
71039;SHT30;58692;43.212;27.908;2022-10-15T09:49:26;18.74;59.46
71039;SHT30;58692;43.212;27.908;2022-10-15T09:52:15;18.67;59.19
71039;SHT30;58692;43.212;27.908;2022-10-15T09:57:38;18.79;58.24
71039;SHT30;58692;43.212;27.908;2022-10-15T10:00:08;18.77;58.62
71039;SHT30;58692;43.212;27.908;2022-10-15T10:02:34;18.90;58.64
71039;SHT30;58692;43.212;27.908;2022-10-15T10:05:18;18.62;59.66
71039;SHT30;58692;43.212;27.908;2022-10-15T10:07:44;18.52;59.73
71039;SHT30;58692;43.212;27.908;2022-10-15T10:10:25;18.53;58.96
71039;SHT30;58692;43.212;27.908;2022-10-15T10:12:53;18.60;58.42
71039;SHT30;58692;43.212;27.908;2022-10-15T10:17:55;18.42;59.35
71039;SHT30;58692;43.212;27.908;2022-10-15T10:20:23;18.41;59.71
71039;SHT30;58692;43.212;27.908;2022-10-15T10:22:52;18.42;59.70
71039;SHT30;58692;43.212;27.908;2022-10-15T10:27:58;18.18;60.45
71039;SHT30;58692;43.212;27.908;2022-10-15T10:30:32;18.28;60.41
71039;SHT30;58692;43.212;27.908;2022-10-15T10:32:59;18.29;60.06
71039;SHT30;58692;43.212;27.908;2022-10-15T10:35:32;18.24;60.44
71039;SHT30;58692;43.212;27.908;2022-10-15T10:37:58;18.36;60.23
71039;SHT30;58692;43.212;27.908;2022-10-15T10:40:29;18.55;59.89
71039;SHT30;58692;43.212;27.908;2022-10-15T10:43:17;18.31;59.59
71039;SHT30;58692;43.212;27.908;2022-10-15T10:48:25;18.24;59.81
71039;SHT30;58692;43.212;27.908;2022-10-15T10:51:07;18.12;59.77
71039;SHT30;58692;43.212;27.908;2022-10-15T10:53:36;18.21;59.78
71039;SHT30;58692;43.212;27.908;2022-10-15T10:56:03;18.15;59.26
71039;SHT30;58692;43.212;27.908;2022-10-15T10:58:32;18.01;59.14
71039;SHT30;58692;43.212;27.908;2022-10-15T11:00:58;18.01;59.14
71039;SHT30;58692;43.212;27.908;2022-10-15T11:03:32;18.15;58.51
71039;SHT30;58692;43.212;27.908;2022-10-15T11:06:20;18.16;58.35
71039;SHT30;58692;43.212;27.908;2022-10-15T11:09:05;18.19;58.03
71039;SHT30;58692;43.212;27.908;2022-10-15T11:11:54;18.12;58.12
71039;SHT30;58692;43.212;27.908;2022-10-15T11:14:23;18.16;57.70
71039;SHT30;58692;43.212;27.908;2022-10-15T11:17:11;18.26;57.20
71039;SHT30;58692;43.212;27.908;2022-10-15T11:22:24;18.32;56.65
71039;SHT30;58692;43.212;27.908;2022-10-15T11:46:12;18.57;55.05
71039;SHT30;58692;43.212;27.908;2022-10-15T11:51:26;18.83;54.11
71039;SHT30;58692;43.212;27.908;2022-10-15T11:54:06;18.59;54.28
71039;SHT30;58692;43.212;27.908;2022-10-15T11:56:40;18.69;53.90
71039;SHT30;58692;43.212;27.908;2022-10-15T11:59:36;18.77;53.79
71039;SHT30;58692;43.212;27.908;2022-10-15T12:02:14;18.57;54.46
71039;SHT30;58692;43.212;27.908;2022-10-15T12:04:45;18.43;54.93
71039;SHT30;58692;43.212;27.908;2022-10-15T12:07:23;18.38;55.16
71039;SHT30;58692;43.212;27.908;2022-10-15T12:09:53;18.26;55.40
71039;SHT30;58692;43.212;27.908;2022-10-15T12:17:47;18.08;56.44
71039;SHT30;58692;43.212;27.908;2022-10-15T12:20:17;18.12;56.29
71039;SHT30;58692;43.212;27.908;2022-10-15T12:23:03;18.08;56.30
71039;SHT30;58692;43.212;27.908;2022-10-15T12:25:40;17.94;56.06
71039;SHT30;58692;43.212;27.908;2022-10-15T12:30:35;18.08;56.12
71039;SHT30;58692;43.212;27.908;2022-10-15T12:33:15;18.04;56.14
71039;SHT30;58692;43.212;27.908;2022-10-15T12:35:53;18.05;56.06
71039;SHT30;58692;43.212;27.908;2022-10-15T12:38:31;18.11;55.97
71039;SHT30;58692;43.212;27.908;2022-10-15T12:41:00;18.01;56.26
71039;SHT30;58692;43.212;27.908;2022-10-15T12:43:26;17.92;56.76
71039;SHT30;58692;43.212;27.908;2022-10-15T12:45:59;17.92;56.76
71039;SHT30;58692;43.212;27.908;2022-10-15T12:51:28;17.88;57.14
71039;SHT30;58692;43.212;27.908;2022-10-15T12:53:55;17.91;57.25
71039;SHT30;58692;43.212;27.908;2022-10-15T12:56:34;17.60;58.36
71039;SHT30;58692;43.212;27.908;2022-10-15T12:59:00;17.49;58.99
71039;SHT30;58692;43.212;27.908;2022-10-15T13:01:28;17.54;59.21
71039;SHT30;58692;43.212;27.908;2022-10-15T13:03:55;17.60;59.16
71039;SHT30;58692;43.212;27.908;2022-10-15T13:06:26;17.57;59.38
71039;SHT30;58692;43.212;27.908;2022-10-15T13:09:01;17.54;59.71
71039;SHT30;58692;43.212;27.908;2022-10-15T13:11:39;17.51;59.61
71039;SHT30;58692;43.212;27.908;2022-10-15T13:16:48;17.40;60.13
71039;SHT30;58692;43.212;27.908;2022-10-15T13:19:20;17.39;60.32
71039;SHT30;58692;43.212;27.908;2022-10-15T13:21:49;17.30;60.77
71039;SHT30;58692;43.212;27.908;2022-10-15T13:24:20;17.07;61.59
71039;SHT30;58692;43.212;27.908;2022-10-15T13:26:46;17.09;61.84
71039;SHT30;58692;43.212;27.908;2022-10-15T13:29:17;17.19;61.58
71039;SHT30;58692;43.212;27.908;2022-10-15T13:31:43;17.24;61.44
71039;SHT30;58692;43.212;27.908;2022-10-15T13:37:01;17.26;61.56
71039;SHT30;58692;43.212;27.908;2022-10-15T13:42:14;17.06;62.47
71039;SHT30;58692;43.212;27.908;2022-10-15T13:44:40;17.13;61.92
71039;SHT30;58692;43.212;27.908;2022-10-15T13:47:23;17.06;62.04
71039;SHT30;58692;43.212;27.908;2022-10-15T13:49:49;17.02;62.40
71039;SHT30;58692;43.212;27.908;2022-10-15T13:52:14;17.05;62.36
71039;SHT30;58692;43.212;27.908;2022-10-15T13:54:43;16.99;62.63
71039;SHT30;58692;43.212;27.908;2022-10-15T13:57:13;17.09;62.38
71039;SHT30;58692;43.212;27.908;2022-10-15T13:59:43;17.06;62.34
71039;SHT30;58692;43.212;27.908;2022-10-15T14:02:10;16.96;62.50
71039;SHT30;58692;43.212;27.908;2022-10-15T14:04:36;16.86;62.85
71039;SHT30;58692;43.212;27.908;2022-10-15T14:07:15;16.85;62.73
71039;SHT30;58692;43.212;27.908;2022-10-15T14:09:45;16.85;62.72
71039;SHT30;58692;43.212;27.908;2022-10-15T14:12:11;16.64;63.06
71039;SHT30;58692;43.212;27.908;2022-10-15T14:14:40;16.58;63.40
71039;SHT30;58692;43.212;27.908;2022-10-15T14:17:10;16.62;63.16
71039;SHT30;58692;43.212;27.908;2022-10-15T14:19:46;16.59;62.95
71039;SHT30;58692;43.212;27.908;2022-10-15T14:22:17;16.64;62.82
71039;SHT30;58692;43.212;27.908;2022-10-15T14:24:44;16.52;63.10
71039;SHT30;58692;43.212;27.908;2022-10-15T14:27:14;16.56;62.97
71039;SHT30;58692;43.212;27.908;2022-10-15T14:29:43;16.49;62.97
71039;SHT30;58692;43.212;27.908;2022-10-15T14:34:48;16.52;62.76
71039;SHT30;58692;43.212;27.908;2022-10-15T14:42:40;16.55;62.18
71039;SHT30;58692;43.212;27.908;2022-10-15T14:45:24;16.55;61.59
71039;SHT30;58692;43.212;27.908;2022-10-15T14:47:53;16.51;61.05
71039;SHT30;58692;43.212;27.908;2022-10-15T14:50:23;16.42;60.49
71039;SHT30;58692;43.212;27.908;2022-10-15T14:52:51;16.40;60.36
71039;SHT30;58692;43.212;27.908;2022-10-15T14:55:27;16.48;59.97
71039;SHT30;58692;43.212;27.908;2022-10-15T14:57:56;16.51;59.93
71039;SHT30;58692;43.212;27.908;2022-10-15T15:00:32;16.56;59.48
71039;SHT30;58692;43.212;27.908;2022-10-15T15:03:00;16.55;59.04
71039;SHT30;58692;43.212;27.908;2022-10-15T15:05:27;16.65;58.93
71039;SHT30;58692;43.212;27.908;2022-10-15T15:07:55;16.59;58.72
71039;SHT30;58692;43.212;27.908;2022-10-15T15:10:23;16.55;58.27
71039;SHT30;58692;43.212;27.908;2022-10-15T15:12:52;16.55;58.24
71039;SHT30;58692;43.212;27.908;2022-10-15T15:15:20;16.61;58.19
71039;SHT30;58692;43.212;27.908;2022-10-15T15:17:50;16.54;58.36
71039;SHT30;58692;43.212;27.908;2022-10-15T15:20:18;16.56;58.34
71039;SHT30;58692;43.212;27.908;2022-10-15T15:22:47;16.49;58.41
71039;SHT30;58692;43.212;27.908;2022-10-15T15:25:19;16.55;58.09
71039;SHT30;58692;43.212;27.908;2022-10-15T15:27:45;16.55;58.25
71039;SHT30;58692;43.212;27.908;2022-10-15T15:30:16;16.52;58.25
71039;SHT30;58692;43.212;27.908;2022-10-15T15:32:43;16.48;58.27
71039;SHT30;58692;43.212;27.908;2022-10-15T15:37:48;16.41;58.19
71039;SHT30;58692;43.212;27.908;2022-10-15T15:40:13;16.35;58.47
71039;SHT30;58692;43.212;27.908;2022-10-15T15:42:39;16.37;58.35
71039;SHT30;58692;43.212;27.908;2022-10-15T15:45:09;16.31;58.52
71039;SHT30;58692;43.212;27.908;2022-10-15T15:47:39;16.29;58.53
71039;SHT30;58692;43.212;27.908;2022-10-15T15:50:05;16.34;58.54
71039;SHT30;58692;43.212;27.908;2022-10-15T15:52:30;16.32;58.42
71039;SHT30;58692;43.212;27.908;2022-10-15T15:54:56;16.34;58.56
71039;SHT30;58692;43.212;27.908;2022-10-15T15:57:21;16.35;58.46
71039;SHT30;58692;43.212;27.908;2022-10-15T15:59:47;16.41;58.31
71039;SHT30;58692;43.212;27.908;2022-10-15T16:02:12;16.38;58.34
71039;SHT30;58692;43.212;27.908;2022-10-15T16:04:38;16.34;58.47
71039;SHT30;58692;43.212;27.908;2022-10-15T16:07:03;16.31;58.38
71039;SHT30;58692;43.212;27.908;2022-10-15T16:09:29;16.31;58.35
71039;SHT30;58692;43.212;27.908;2022-10-15T16:11:54;16.28;58.54
71039;SHT30;58692;43.212;27.908;2022-10-15T16:14:21;16.38;58.48
71039;SHT30;58692;43.212;27.908;2022-10-15T16:16:47;16.45;58.22
71039;SHT30;58692;43.212;27.908;2022-10-15T16:19:12;16.31;58.26
71039;SHT30;58692;43.212;27.908;2022-10-15T16:21:38;16.31;58.50
71039;SHT30;58692;43.212;27.908;2022-10-15T16:24:04;16.28;58.59
71039;SHT30;58692;43.212;27.908;2022-10-15T16:26:29;16.25;58.76
71039;SHT30;58692;43.212;27.908;2022-10-15T16:28:55;16.31;58.58
71039;SHT30;58692;43.212;27.908;2022-10-15T16:31:24;16.28;58.57
71039;SHT30;58692;43.212;27.908;2022-10-15T16:33:50;16.24;58.72
71039;SHT30;58692;43.212;27.908;2022-10-15T16:36:16;16.08;59.11
71039;SHT30;58692;43.212;27.908;2022-10-15T16:38:43;16.05;59.35
71039;SHT30;58692;43.212;27.908;2022-10-15T16:41:10;16.07;59.43
71039;SHT30;58692;43.212;27.908;2022-10-15T16:43:36;16.14;59.37
71039;SHT30;58692;43.212;27.908;2022-10-15T16:46:02;16.10;59.50
71039;SHT30;58692;43.212;27.908;2022-10-15T16:48:30;16.04;59.94
71039;SHT30;58692;43.212;27.908;2022-10-15T16:51:06;16.03;60.08
71039;SHT30;58692;43.212;27.908;2022-10-15T16:53:32;16.03;60.19
71039;SHT30;58692;43.212;27.908;2022-10-15T16:56:02;16.01;60.37
71039;SHT30;58692;43.212;27.908;2022-10-15T16:58:28;15.98;60.52
71039;SHT30;58692;43.212;27.908;2022-10-15T17:00:58;15.98;60.60
71039;SHT30;58692;43.212;27.908;2022-10-15T17:03:24;15.89;60.92
71039;SHT30;58692;43.212;27.908;2022-10-15T17:05:54;15.84;61.14